createdAt,value
2022-12-29T00:01:02.278Z,0.90
2022-12-29T00:03:32.047Z,1.07
2022-12-29T00:06:01.942Z,3.13
2022-12-29T00:08:40.547Z,0.80
2022-12-29T00:11:09.401Z,1.00
2022-12-29T00:13:54.591Z,0.90
2022-12-29T00:16:22.722Z,0.90
2022-12-29T00:18:51.973Z,1.10
2022-12-29T00:21:40.135Z,0.80
2022-12-29T00:24:26.508Z,1.10
2022-12-29T00:27:14.644Z,3.57
2022-12-29T00:29:59.871Z,0.87
2022-12-29T00:32:44.999Z,0.80
2022-12-29T00:35:17.439Z,1.00
2022-12-29T00:38:07.494Z,0.80
2022-12-29T00:40:52.783Z,1.30
2022-12-29T00:43:49.544Z,1.20
2022-12-29T00:46:19.930Z,0.83
2022-12-29T00:49:06.105Z,1.33
2022-12-29T00:51:35.228Z,1.13
2022-12-29T00:54:03.281Z,0.80
2022-12-29T00:56:31.156Z,0.77
2022-12-29T00:59:02.963Z,0.77
2022-12-29T01:01:32.229Z,0.67
2022-12-29T01:04:03.684Z,1.07
2022-12-29T01:06:32.389Z,0.80
2022-12-29T01:09:20.005Z,0.70
2022-12-29T01:11:47.679Z,0.63
2022-12-29T01:14:15.675Z,0.80
2022-12-29T01:16:43.506Z,0.73
2022-12-29T01:19:11.515Z,0.70
2022-12-29T01:21:39.315Z,0.63
2022-12-29T01:24:09.885Z,0.70
2022-12-29T01:26:37.558Z,0.70
2022-12-29T01:29:05.356Z,0.80
2022-12-29T01:31:33.598Z,0.73
2022-12-29T01:34:01.597Z,0.90
2022-12-29T01:36:29.437Z,0.70
2022-12-29T01:38:57.177Z,0.77
2022-12-29T01:41:27.335Z,0.70
2022-12-29T01:43:57.513Z,0.80
2022-12-29T01:46:28.538Z,1.20
2022-12-29T01:49:02.433Z,0.80
2022-12-29T01:51:33.737Z,0.70
2022-12-29T01:54:06.577Z,0.87
2022-12-29T01:56:37.392Z,0.77
2022-12-29T01:59:10.040Z,0.60
2022-12-29T02:01:38.043Z,0.50
2022-12-29T02:04:06.576Z,0.57
2022-12-29T02:06:42.030Z,0.50
2022-12-29T02:09:09.839Z,0.63
2022-12-29T02:11:40.963Z,0.70
2022-12-29T02:14:11.590Z,0.80
2022-12-29T02:17:01.245Z,0.60
2022-12-29T02:20:21.236Z,0.60
2022-12-29T02:23:05.696Z,0.60
2022-12-29T02:25:54.659Z,0.60
2022-12-29T02:28:46.213Z,0.60
2022-12-29T02:31:23.284Z,0.70
2022-12-29T02:34:02.003Z,0.50
2022-12-29T02:36:39.446Z,0.60
2022-12-29T02:39:15.450Z,0.60
2022-12-29T02:41:55.287Z,0.60
2022-12-29T02:44:28.744Z,0.50
2022-12-29T02:47:05.841Z,1.40
2022-12-29T02:49:38.542Z,0.60
2022-12-29T02:52:12.704Z,0.50
2022-12-29T02:54:42.157Z,0.60
2022-12-29T02:57:16.147Z,0.63
2022-12-29T02:59:48.600Z,0.50
2022-12-29T03:02:31.872Z,0.50
2022-12-29T03:05:22.042Z,0.50
2022-12-29T03:07:57.789Z,0.50
2022-12-29T03:10:35.514Z,0.60
2022-12-29T03:13:23.615Z,0.50
2022-12-29T03:16:05.286Z,0.50
2022-12-29T03:18:43.721Z,0.40
2022-12-29T03:21:16.363Z,0.50
2022-12-29T03:23:50.381Z,0.70
2022-12-29T03:26:20.593Z,0.40
2022-12-29T03:28:52.918Z,0.77
2022-12-29T03:31:22.458Z,0.40
2022-12-29T03:33:53.058Z,0.60
2022-12-29T03:36:27.563Z,0.40
2022-12-29T03:39:01.480Z,0.60
2022-12-29T03:41:33.941Z,0.30
2022-12-29T03:44:02.251Z,0.40
2022-12-29T03:46:30.023Z,0.40
2022-12-29T03:48:59.468Z,0.50
2022-12-29T03:51:27.387Z,0.60
2022-12-29T03:53:55.403Z,0.53
2022-12-29T03:56:24.162Z,0.50
2022-12-29T03:58:51.889Z,0.30
2022-12-29T04:01:19.743Z,0.73
2022-12-29T04:03:47.759Z,0.87
2022-12-29T04:06:17.030Z,0.60
2022-12-29T04:08:44.931Z,0.50
2022-12-29T04:11:12.766Z,0.50
2022-12-29T04:13:41.974Z,0.73
2022-12-29T04:16:10.508Z,1.73
2022-12-29T04:18:38.967Z,0.60
2022-12-29T04:21:07.611Z,0.57
2022-12-29T04:23:39.428Z,0.80
2022-12-29T04:26:09.980Z,0.50
2022-12-29T04:28:37.912Z,0.50
2022-12-29T04:31:06.483Z,1.13
2022-12-29T04:33:34.446Z,0.60
2022-12-29T04:36:02.262Z,1.37
2022-12-29T04:38:30.298Z,0.67
2022-12-29T04:41:01.878Z,0.50
2022-12-29T04:43:29.972Z,0.50
2022-12-29T04:45:57.975Z,1.13
2022-12-29T04:48:26.273Z,1.43
2022-12-29T04:50:54.126Z,0.97
2022-12-29T04:53:21.950Z,0.73
2022-12-29T04:55:51.106Z,0.73
2022-12-29T04:58:23.366Z,0.60
2022-12-29T05:00:52.954Z,0.67
2022-12-29T05:03:20.757Z,0.50
2022-12-29T05:05:48.549Z,0.60
2022-12-29T05:08:16.811Z,0.60
2022-12-29T05:10:46.846Z,0.87
2022-12-29T05:13:14.776Z,0.97
2022-12-29T05:15:49.472Z,0.93
2022-12-29T05:18:17.446Z,0.47
2022-12-29T05:20:46.432Z,0.93
2022-12-29T05:23:14.496Z,0.50
2022-12-29T05:25:42.574Z,0.70
2022-12-29T05:28:10.371Z,0.43
2022-12-29T05:30:38.786Z,0.40
2022-12-29T05:33:08.322Z,0.53
2022-12-29T05:35:36.329Z,0.60
2022-12-29T05:38:04.221Z,0.50
2022-12-29T05:40:31.910Z,0.50
2022-12-29T05:43:00.878Z,0.43
2022-12-29T05:45:28.587Z,0.50
2022-12-29T05:47:57.043Z,0.60
2022-12-29T05:50:26.539Z,0.50
2022-12-29T05:52:54.583Z,0.40
2022-12-29T05:55:23.005Z,0.60
2022-12-29T05:57:50.747Z,0.57
2022-12-29T06:00:18.748Z,1.13
2022-12-29T06:02:47.015Z,0.60
2022-12-29T06:05:14.980Z,0.50
2022-12-29T06:07:46.007Z,0.50
2022-12-29T06:10:13.711Z,0.40
2022-12-29T06:12:41.566Z,0.40
2022-12-29T06:15:10.108Z,0.77
2022-12-29T06:17:38.102Z,0.60
2022-12-29T06:20:06.517Z,1.40
2022-12-29T06:22:34.405Z,0.63
2022-12-29T06:25:05.363Z,0.60
2022-12-29T06:27:33.930Z,0.70
2022-12-29T06:30:02.254Z,0.63
2022-12-29T06:32:30.161Z,0.70
2022-12-29T06:34:58.348Z,0.67
2022-12-29T06:37:26.031Z,0.60
2022-12-29T06:39:53.948Z,1.63
2022-12-29T06:42:23.485Z,0.80
2022-12-29T06:44:53.354Z,0.67
2022-12-29T06:47:21.340Z,0.73
2022-12-29T06:49:49.247Z,0.60
2022-12-29T06:52:16.957Z,1.30
2022-12-29T06:54:45.230Z,0.90
2022-12-29T06:57:13.188Z,1.53
2022-12-29T06:59:42.446Z,1.00
2022-12-29T07:02:12.763Z,1.10
2022-12-29T07:04:40.901Z,0.73
2022-12-29T07:07:08.867Z,0.70
2022-12-29T07:09:36.563Z,2.50
2022-12-29T07:12:04.675Z,0.77
2022-12-29T07:14:36.081Z,1.03
2022-12-29T07:17:10.056Z,1.60
2022-12-29T07:19:37.997Z,1.17
2022-12-29T07:22:05.662Z,3.70
2022-12-29T07:24:33.827Z,1.93
2022-12-29T07:27:02.576Z,9.33
2022-12-29T07:29:30.416Z,3.73
2022-12-29T07:31:58.617Z,2.87
2022-12-29T07:34:27.898Z,1.83
2022-12-29T07:36:55.866Z,1.63
2022-12-29T07:39:23.549Z,2.37
2022-12-29T07:41:51.707Z,2.27
2022-12-29T07:44:20.732Z,2.43
2022-12-29T07:46:55.675Z,3.90
2022-12-29T07:49:25.580Z,1.33
2022-12-29T07:51:55.135Z,1.73
2022-12-29T07:54:24.098Z,2.57
2022-12-29T07:56:53.293Z,1.50
2022-12-29T07:59:21.135Z,1.63
2022-12-29T08:01:50.024Z,1.77
2022-12-29T08:04:18.115Z,1.33
2022-12-29T08:06:46.431Z,1.47
2022-12-29T08:09:21.899Z,1.67
2022-12-29T08:11:51.944Z,2.67
2022-12-29T08:14:19.922Z,1.50
2022-12-29T08:16:48.179Z,2.63
2022-12-29T08:19:16.523Z,2.70
2022-12-29T08:21:44.508Z,4.83
2022-12-29T08:24:12.568Z,1.77
2022-12-29T08:26:42.085Z,2.47
2022-12-29T08:29:10.134Z,1.50
2022-12-29T08:31:38.794Z,1.57
2022-12-29T08:34:06.889Z,1.50
2022-12-29T08:36:35.644Z,3.33
2022-12-29T08:39:03.342Z,2.83
2022-12-29T08:41:31.386Z,1.20
2022-12-29T08:44:00.902Z,3.10
2022-12-29T08:46:30.078Z,2.60
2022-12-29T08:48:57.989Z,2.30
2022-12-29T08:51:26.169Z,1.43
2022-12-29T08:53:54.660Z,3.33
2022-12-29T08:56:24.995Z,3.67
2022-12-29T08:58:53.208Z,2.77
2022-12-29T09:01:23.367Z,2.87
2022-12-29T09:04:14.433Z,2.10
2022-12-29T09:06:40.838Z,3.03
2022-12-29T09:09:09.007Z,2.80
2022-12-29T09:11:36.942Z,2.30
2022-12-29T09:14:04.915Z,2.17
2022-12-29T09:16:34.862Z,2.33
2022-12-29T09:19:02.913Z,3.07
2022-12-29T09:21:31.007Z,2.60
2022-12-29T09:23:58.877Z,3.13
2022-12-29T09:26:26.977Z,4.63
2022-12-29T09:28:54.686Z,3.17
2022-12-29T09:31:23.474Z,4.93
2022-12-29T09:33:53.164Z,2.00
2022-12-29T09:36:20.957Z,2.50
2022-12-29T09:38:48.841Z,3.83
2022-12-29T09:41:22.863Z,3.10
2022-12-29T09:44:05.223Z,3.17
2022-12-29T09:46:37.207Z,2.23
2022-12-29T09:49:19.227Z,3.73
2022-12-29T09:51:50.825Z,3.43
2022-12-29T09:54:31.377Z,2.40
2022-12-29T09:57:00.189Z,3.90
2022-12-29T09:59:37.665Z,3.40
2022-12-29T10:02:15.106Z,4.77
2022-12-29T10:04:46.601Z,2.87
2022-12-29T10:07:29.555Z,2.30
2022-12-29T10:10:05.725Z,3.23
2022-12-29T10:12:50.907Z,2.57
2022-12-29T10:15:36.194Z,3.63
2022-12-29T10:18:15.328Z,3.43
2022-12-29T10:20:52.097Z,3.23
2022-12-29T10:23:29.307Z,4.90
2022-12-29T10:25:58.523Z,3.27
2022-12-29T10:28:33.809Z,4.07
2022-12-29T10:31:08.666Z,1.73
2022-12-29T10:33:41.259Z,2.67
2022-12-29T10:36:19.379Z,3.73
2022-12-29T10:38:54.010Z,4.23
2022-12-29T10:41:26.233Z,3.43
2022-12-29T10:43:57.180Z,3.50
2022-12-29T10:46:28.830Z,4.13
2022-12-29T10:48:57.130Z,3.00
2022-12-29T10:51:29.908Z,3.07
2022-12-29T10:54:07.414Z,4.40
2022-12-29T10:56:37.896Z,2.47
2022-12-29T10:59:16.473Z,2.40
2022-12-29T11:01:52.769Z,3.80
2022-12-29T11:04:35.591Z,9.10
2022-12-29T11:07:10.657Z,5.50
2022-12-29T11:09:43.762Z,2.40
2022-12-29T11:12:23.559Z,2.53
2022-12-29T11:15:04.007Z,3.40
2022-12-29T11:17:31.723Z,3.27
2022-12-29T11:19:59.692Z,2.60
2022-12-29T11:22:30.513Z,3.20
2022-12-29T11:25:12.530Z,3.83
2022-12-29T11:27:43.221Z,4.17
2022-12-29T11:30:24.899Z,5.67
2022-12-29T11:32:54.819Z,5.57
2022-12-29T11:35:32.866Z,3.73
2022-12-29T11:38:03.574Z,3.77
2022-12-29T11:40:32.408Z,5.20
2022-12-29T11:43:04.233Z,3.83
2022-12-29T11:45:35.469Z,2.17
2022-12-29T11:48:09.148Z,4.23
2022-12-29T11:50:42.454Z,3.07
2022-12-29T11:53:19.432Z,3.73
2022-12-29T11:55:54.677Z,3.23
2022-12-29T11:58:23.814Z,3.83
2022-12-29T12:00:53.360Z,2.77
2022-12-29T12:03:26.718Z,2.73
2022-12-29T12:05:58.726Z,4.40
2022-12-29T12:08:37.859Z,5.53
2022-12-29T12:11:10.883Z,4.17
2022-12-29T12:13:44.054Z,3.73
2022-12-29T12:16:17.414Z,2.63
2022-12-29T12:18:49.618Z,4.17
2022-12-29T12:21:25.014Z,3.47
2022-12-29T12:24:16.237Z,3.70
2022-12-29T12:26:57.219Z,2.83
2022-12-29T12:29:28.938Z,3.83
2022-12-29T12:32:01.301Z,1.87
2022-12-29T12:34:37.580Z,3.23
2022-12-29T12:37:29.441Z,4.17
2022-12-29T12:40:21.294Z,4.37
2022-12-29T12:43:00.860Z,3.67
2022-12-29T12:45:39.312Z,4.67
2022-12-29T12:48:21.918Z,4.20
2022-12-29T12:51:01.865Z,4.03
2022-12-29T12:53:43.419Z,5.90
2022-12-29T12:56:44.795Z,4.53
2022-12-29T12:59:23.689Z,4.70
2022-12-29T13:02:03.298Z,3.63
2022-12-29T13:05:05.715Z,4.60
2022-12-29T13:07:46.049Z,3.87
2022-12-29T13:10:26.607Z,3.17
2022-12-29T13:13:07.854Z,4.67
2022-12-29T13:15:44.423Z,3.30
2022-12-29T13:18:27.377Z,3.17
2022-12-29T13:21:03.189Z,4.13
2022-12-29T13:23:40.087Z,6.53
2022-12-29T13:26:15.782Z,3.37
2022-12-29T13:28:53.856Z,2.97
2022-12-29T13:31:30.626Z,2.23
2022-12-29T13:34:04.937Z,4.10
2022-12-29T13:36:37.733Z,3.00
2022-12-29T13:39:20.900Z,2.70
2022-12-29T13:41:52.157Z,3.00
2022-12-29T13:44:25.772Z,3.53
2022-12-29T13:46:55.712Z,1.93
2022-12-29T13:49:25.508Z,2.70
2022-12-29T13:51:55.160Z,3.10
2022-12-29T13:54:38.013Z,4.87
2022-12-29T13:57:12.462Z,3.30
2022-12-29T13:59:52.042Z,3.33
2022-12-29T14:02:29.399Z,4.80
2022-12-29T14:05:00.045Z,2.83
2022-12-29T14:07:28.812Z,2.03
2022-12-29T14:09:58.519Z,2.83
2022-12-29T14:12:40.621Z,3.23
2022-12-29T14:15:25.676Z,2.40
2022-12-29T14:18:12.929Z,5.37
2022-12-29T14:20:42.827Z,2.60
2022-12-29T14:23:30.885Z,3.83
2022-12-29T14:26:01.903Z,3.23
2022-12-29T14:28:31.531Z,4.07
2022-12-29T14:31:04.260Z,4.70
2022-12-29T14:33:33.488Z,4.63
2022-12-29T14:36:23.079Z,4.73
2022-12-29T14:38:51.835Z,2.67
2022-12-29T14:41:29.235Z,3.03
2022-12-29T14:44:02.263Z,3.97
2022-12-29T14:49:26.690Z,4.40
2022-12-29T14:51:57.154Z,8.73
2022-12-29T14:54:50.972Z,3.30
2022-12-29T14:57:31.802Z,4.63
2022-12-29T15:00:07.638Z,3.67
2022-12-29T15:02:41.961Z,4.10
2022-12-29T15:05:27.088Z,4.87
2022-12-29T15:07:56.075Z,6.57
2022-12-29T15:10:26.660Z,3.90
2022-12-29T15:12:56.338Z,3.33
2022-12-29T15:15:27.069Z,4.40
2022-12-29T15:17:55.288Z,2.77
2022-12-29T15:20:27.764Z,3.97
2022-12-29T15:22:58.292Z,4.37
2022-12-29T15:25:27.390Z,3.20
2022-12-29T15:27:58.055Z,2.37
2022-12-29T15:30:26.191Z,4.57
2022-12-29T15:32:53.948Z,4.37
2022-12-29T15:35:29.980Z,3.67
2022-12-29T15:37:58.235Z,3.93
2022-12-29T15:40:29.965Z,3.30
2022-12-29T15:43:26.178Z,3.63
2022-12-29T15:45:56.556Z,3.33
2022-12-29T15:48:26.625Z,3.00
2022-12-29T15:50:56.221Z,1.97
2022-12-29T15:53:29.551Z,5.70
2022-12-29T15:56:03.435Z,2.87
2022-12-29T15:58:33.126Z,4.57
2022-12-29T16:01:02.898Z,3.23
2022-12-29T16:03:36.196Z,3.07
2022-12-29T16:06:27.204Z,3.70
2022-12-29T16:08:59.004Z,2.73
2022-12-29T16:11:29.873Z,3.00
2022-12-29T16:13:58.762Z,5.90
2022-12-29T16:16:30.820Z,3.43
2022-12-29T16:18:59.419Z,3.00
2022-12-29T16:21:32.222Z,4.40
2022-12-29T16:24:03.530Z,4.63
2022-12-29T16:26:31.533Z,4.83
2022-12-29T16:29:01.415Z,4.63
2022-12-29T16:31:36.844Z,3.13
2022-12-29T16:34:24.807Z,6.03
2022-12-29T16:36:59.665Z,4.53
2022-12-29T16:39:37.121Z,2.73
2022-12-29T16:42:38.449Z,3.27
2022-12-29T16:46:00.191Z,3.77
2022-12-29T16:48:30.076Z,2.47
2022-12-29T16:51:04.398Z,4.17
2022-12-29T16:53:36.145Z,3.93
2022-12-29T16:56:10.056Z,1.97
2022-12-29T16:58:38.129Z,5.23
2022-12-29T17:01:15.860Z,1.97
2022-12-29T17:03:49.989Z,3.13
2022-12-29T17:06:18.634Z,4.07
2022-12-29T17:08:50.316Z,4.70
2022-12-29T17:11:41.523Z,5.07
2022-12-29T17:14:29.398Z,9.43
2022-12-29T17:16:57.566Z,4.57
2022-12-29T17:19:30.387Z,3.83
2022-12-29T17:21:59.211Z,2.77
2022-12-29T17:24:29.879Z,2.47
2022-12-29T17:27:00.769Z,4.17
2022-12-29T17:29:35.312Z,5.20
2022-12-29T17:32:05.282Z,5.43
2022-12-29T17:34:33.590Z,4.50
2022-12-29T17:37:01.433Z,2.20
2022-12-29T17:39:30.968Z,2.70
2022-12-29T17:41:59.022Z,2.50
2022-12-29T17:44:30.103Z,2.87
2022-12-29T17:46:58.073Z,2.60
2022-12-29T17:49:26.188Z,2.97
2022-12-29T17:51:54.039Z,4.53
2022-12-29T17:54:24.176Z,2.50
2022-12-29T17:56:54.238Z,2.57
2022-12-29T17:59:22.012Z,3.00
2022-12-29T18:01:51.117Z,4.10
2022-12-29T18:04:22.528Z,3.90
2022-12-29T18:06:50.894Z,4.50
2022-12-29T18:09:19.103Z,4.00
2022-12-29T18:11:47.282Z,4.73
2022-12-29T18:14:17.939Z,5.13
2022-12-29T18:16:46.043Z,5.77
2022-12-29T18:19:13.787Z,4.90
2022-12-29T18:21:43.567Z,4.50
2022-12-29T18:24:14.913Z,3.77
2022-12-29T18:26:43.321Z,4.30
2022-12-29T18:29:13.146Z,5.97
2022-12-29T18:31:42.220Z,5.93
2022-12-29T18:34:16.359Z,6.47
2022-12-29T18:36:44.169Z,5.57
2022-12-29T18:39:12.565Z,6.27
2022-12-29T18:41:40.548Z,6.33
2022-12-29T18:44:13.889Z,3.37
2022-12-29T18:46:43.205Z,3.80
2022-12-29T18:49:11.037Z,3.33
2022-12-29T18:51:38.978Z,4.10
2022-12-29T18:54:06.797Z,1.63
2022-12-29T18:56:34.505Z,3.63
2022-12-29T18:59:02.680Z,4.47
2022-12-29T19:01:31.420Z,2.77
2022-12-29T19:04:00.713Z,2.50
2022-12-29T19:06:31.608Z,2.37
2022-12-29T19:08:59.807Z,4.40
2022-12-29T19:11:27.541Z,4.83
2022-12-29T19:13:55.473Z,5.03
2022-12-29T19:16:25.021Z,4.33
2022-12-29T19:19:08.431Z,2.37
2022-12-29T19:21:45.045Z,2.73
2022-12-29T19:24:13.210Z,2.60
2022-12-29T19:26:43.117Z,4.83
2022-12-29T19:29:16.195Z,3.40
2022-12-29T19:31:44.219Z,3.43
2022-12-29T19:34:15.312Z,5.13
2022-12-29T19:36:46.710Z,4.97
2022-12-29T19:39:14.728Z,2.40
2022-12-29T19:41:42.680Z,2.63
2022-12-29T19:44:10.903Z,2.63
2022-12-29T19:46:38.864Z,3.57
2022-12-29T19:49:06.661Z,3.93
2022-12-29T19:51:34.770Z,3.57
2022-12-29T19:54:03.908Z,2.33
2022-12-29T19:56:32.356Z,4.60
2022-12-29T19:59:00.227Z,2.13
2022-12-29T20:01:28.151Z,2.73
2022-12-29T20:03:56.169Z,4.23
2022-12-29T20:06:24.008Z,5.63
2022-12-29T20:08:52.042Z,5.77
2022-12-29T20:11:21.447Z,9.23
2022-12-29T20:13:49.436Z,3.27
2022-12-29T20:16:19.285Z,5.00
2022-12-29T20:18:47.402Z,4.67
2022-12-29T20:21:18.421Z,2.77
2022-12-29T20:23:47.277Z,5.93
2022-12-29T20:26:19.047Z,3.67
2022-12-29T20:28:49.124Z,5.73
2022-12-29T20:31:21.839Z,3.97
2022-12-29T20:33:50.202Z,8.40
2022-12-29T20:36:21.848Z,4.80
2022-12-29T20:38:51.448Z,5.70
2022-12-29T20:41:19.654Z,11.53
2022-12-29T20:43:49.453Z,3.77
2022-12-29T20:46:21.423Z,5.23
2022-12-29T20:48:52.649Z,5.67
2022-12-29T20:51:22.508Z,4.97
2022-12-29T20:53:50.323Z,5.30
2022-12-29T20:56:21.315Z,5.60
2022-12-29T21:01:38.972Z,5.97
2022-12-29T21:04:07.445Z,6.50
2022-12-29T21:06:36.075Z,8.83
2022-12-29T21:09:04.887Z,6.87
2022-12-29T21:11:32.647Z,8.73
2022-12-29T21:14:02.038Z,7.40
2022-12-29T21:16:29.929Z,4.83
2022-12-29T21:18:57.955Z,6.30
2022-12-29T21:21:27.134Z,7.33
2022-12-29T21:23:56.211Z,6.70
2022-12-29T21:26:25.184Z,6.83
2022-12-29T21:28:53.940Z,13.03
2022-12-29T21:31:27.777Z,11.33
2022-12-29T21:33:57.109Z,6.60
2022-12-29T21:36:26.651Z,11.80
2022-12-29T21:38:55.398Z,7.60
2022-12-29T21:41:24.158Z,4.63
2022-12-29T21:44:06.663Z,7.30
2022-12-29T21:46:37.814Z,8.33
2022-12-29T21:49:06.730Z,6.53
2022-12-29T21:51:54.078Z,10.63
2022-12-29T21:54:41.761Z,7.87
2022-12-29T21:57:13.370Z,5.93
2022-12-29T22:00:00.654Z,7.43
2022-12-29T22:02:47.767Z,5.17
2022-12-29T22:05:34.539Z,8.70
2022-12-29T22:08:21.898Z,4.57
2022-12-29T22:11:07.895Z,4.83
2022-12-29T22:13:37.549Z,7.87
2022-12-29T22:16:08.999Z,8.60
2022-12-29T22:18:38.761Z,6.03
2022-12-29T22:21:08.015Z,9.20
2022-12-29T22:23:37.529Z,9.27
2022-12-29T22:26:07.280Z,8.70
2022-12-29T22:28:37.856Z,8.47
2022-12-29T22:31:06.017Z,7.33
2022-12-29T22:33:34.337Z,9.33
2022-12-29T22:36:03.658Z,8.30
2022-12-29T22:38:31.708Z,7.07
2022-12-29T22:41:01.370Z,6.87
2022-12-29T22:43:30.027Z,10.10
2022-12-29T22:46:03.814Z,5.47
2022-12-29T22:48:33.427Z,6.57
2022-12-29T22:51:01.112Z,6.83
2022-12-29T22:53:30.772Z,5.17
2022-12-29T22:56:08.577Z,6.57
2022-12-29T22:58:36.844Z,6.27
2022-12-29T23:01:05.870Z,8.77
2022-12-29T23:03:34.105Z,4.90
2022-12-29T23:06:03.803Z,5.80
2022-12-29T23:08:36.119Z,7.30
2022-12-29T23:11:05.201Z,8.80
2022-12-29T23:13:33.266Z,7.40
2022-12-29T23:16:01.478Z,5.50
2022-12-29T23:18:29.484Z,7.07
2022-12-29T23:20:57.386Z,6.40
2022-12-29T23:23:46.457Z,7.67
2022-12-29T23:26:18.170Z,6.87
2022-12-29T23:28:46.328Z,6.37
2022-12-29T23:31:14.460Z,8.47
2022-12-29T23:33:42.627Z,5.77
2022-12-29T23:36:11.081Z,7.40
2022-12-29T23:38:38.893Z,6.87
2022-12-29T23:41:06.720Z,6.10
2022-12-29T23:43:36.631Z,7.47
2022-12-29T23:46:08.827Z,6.97
2022-12-29T23:48:37.238Z,6.13
2022-12-29T23:51:06.854Z,5.23
2022-12-29T23:53:35.827Z,7.43
2022-12-29T23:56:03.787Z,6.60
2022-12-29T23:58:32.446Z,7.83
